Observations
| Time | Sensor | AQI | SAQ | Temp °C | Hum % | Pres Pa | CO μg/m³ | H₂S μg/m³ | NO μg/m³ | NO₂ μg/m³ | O₃ μg/m³ | SO₂ μg/m³ | CO₂e PPM | VOC PPM | PM1 μg/m³ | PM2.5 μg/m³ | PM4 μg/m³ | PM10 μg/m³ | TPS µm |
|---|---|---|---|---|---|---|---|---|---|---|---|---|---|---|---|---|---|---|---|
| Wednesday 12 August 2026 | |||||||||||||||||||
| 15:50 | Trim Patrick St | 3 | 37 | 32 | 69,744 | 0 | 8.67 | 0.04 | 19.56 | 139.04 | 23.23 | 3.71 | 11.59 | 12.75 | |||||
| 15:50 | Trim Market St | 3 | 38.8 | 28 | 66,916 | 0 | 0 | 0 | 16.86 | 90.08 | 1.03 | 1.43 | 5.06 | 5.56 | |||||
| 15:49 | Trim Patrick St | 3 | 36.8 | 32 | 69,711 | 0 | 0 | 0.06 | 12.78 | 88.29 | 21.39 | 2.86 | 9.13 | 10.04 | |||||
| 15:49 | Trim Market St | 3 | 38.7 | 28 | 66,865 | 0 | 0.77 | 0.01 | 15.56 | 107.35 | 1.33 | 2.14 | 5.05 | 5.56 | |||||
| 15:48 | Trim Patrick St | 3 | 36.6 | 32 | 69,705 | 0 | 3.61 | 0.08 | 12.73 | 119.11 | 23.18 | 5.43 | 12.35 | 13.58 | |||||
| 15:48 | Trim Market St | 3 | 38.5 | 28 | 66,857 | 0 | 0.09 | 0.03 | 13.89 | 117.9 | 1.46 | 1.43 | 3.95 | 4.01 | |||||
| 15:47 | Trim Patrick St | 3 | 36.5 | 32 | 69,697 | 0 | 8.51 | 0.1 | 13.91 | 137.49 | 22.8 | 2.86 | 9.14 | 10.06 | |||||
| 15:47 | Trim Market St | 3 | 38.4 | 28 | 66,876 | 0 | 0 | 0.01 | 13.58 | 109.36 | 1.58 | 1.43 | 6.13 | 6.74 | |||||
| 15:46 | Trim Patrick St | 3 | 36.4 | 32 | 69,661 | 0 | 5.39 | 0.12 | 12.68 | 126.1 | 23.22 | 5.43 | 10.74 | 11.81 | |||||
| 15:46 | Trim Market St | 3 | 38.3 | 28 | 66,876 | 0 | 0 | 0.01 | 14.03 | 117.73 | 0.95 | 2.14 | 5.58 | 5.77 | |||||
| 15:45 | Trim Patrick St | 3 | 36.4 | 32 | 69,671 | 0 | 4.31 | 0.14 | 12.64 | 126.64 | 22.85 | 5.43 | 11.58 | 12.74 | |||||
| 15:45 | Trim Market St | 3 | 38.1 | 28 | 66,847 | 0 | 0 | 0 | 13.28 | 115.62 | 1.73 | 2.85 | 6.12 | 6.73 | |||||
| 15:44 | Trim Patrick St | 3 | 36.3 | 32 | 69,656 | 0 | 3.62 | 0.16 | 12.75 | 131.7 | 22.34 | 5.43 | 12.39 | 13.63 | |||||
| 15:44 | Trim Market St | 3 | 38 | 28 | 66,841 | 0 | 4.05 | 0 | 13.2 | 104.71 | 2.2 | 2.14 | 5.02 | 7.52 | |||||
| 15:43 | Trim Patrick St | 3 | 36.3 | 32 | 69,669 | 0 | 3.59 | 0.12 | 12.61 | 110.76 | 22.84 | 4.57 | 11.53 | 12.68 | |||||
| 15:43 | Trim Market St | 3 | 37.8 | 28 | 66,839 | 0 | 7.25 | 0 | 13.69 | 125.2 | 2.35 | 2.14 | 5.03 | 5.53 | |||||
| 15:42 | Trim Market St | 3 | 37.7 | 28 | 66,835 | 0 | 3.33 | 0 | 13.34 | 120.17 | 2.15 | 2.14 | 5.02 | 5.52 | |||||
| 15:41 | Trim Patrick St | 3 | 36.1 | 32 | 69,671 | 0 | 4.8 | 0.15 | 13.61 | 95.34 | 20.95 | 4.57 | 10.75 | 11.83 | |||||
| 15:41 | Trim Market St | 3 | 37.6 | 28 | 66,833 | 0 | 1.58 | 0.04 | 13.13 | 124.97 | 2.33 | 2.14 | 5.02 | 5.52 | |||||
| 15:40 | Trim Patrick St | 3 | 36.1 | 33 | 69,691 | 0 | 7.78 | 0.13 | 12.93 | 104.82 | 22.43 | 3.71 | 9.87 | 10.86 | |||||